Time;durP1;ratioP1;P1;durP2;ratioP2;P2;SDS_P1;SDS_P2;PMS_P1;PMS_P2;Temp;Humidity;BMP_temperature;BMP_pressure;BME280_temperature;BME280_humidity;BME280_pressure;Samples;Min_cycle;Max_cycle;Signal;HPM_P1;HPM_P2
2022/06/19 00:00:49;;;;;;;5.17;4.67;;;;;26.00;99749.00;;;;2035253;29;20236;-69
2022/06/19 00:01:50;;;;;;;7.20;4.20;;;;;26.00;99746.00;;;;2042980;28;20204;-69
2022/06/19 00:02:50;;;;;;;8.63;4.87;;;;;26.00;99742.00;;;;2043406;28;20275;-69
2022/06/19 00:03:51;;;;;;;4.70;4.30;;;;;26.00;99740.00;;;;2044544;28;20212;-70
2022/06/19 00:04:53;;;;;;;4.63;4.23;;;;;26.00;99730.00;;;;2044413;28;20213;-70
2022/06/19 00:05:53;;;;;;;5.97;4.40;;;;;26.00;99746.00;;;;2043805;28;20479;-70
2022/06/19 00:06:53;;;;;;;5.67;4.23;;;;;26.00;99739.00;;;;2035627;28;20489;-69
2022/06/19 00:07:55;;;;;;;6.20;4.57;;;;;26.00;99729.00;;;;2035038;29;20557;-69
2022/06/19 00:08:55;;;;;;;11.70;5.17;;;;;26.00;99747.00;;;;2033577;29;20256;-69
2022/06/19 00:09:55;;;;;;;6.23;4.50;;;;;26.00;99740.00;;;;2035209;29;20450;-69
2022/06/19 00:10:56;;;;;;;4.67;4.23;;;;;26.00;99740.00;;;;2043147;28;21200;-69
2022/06/19 00:11:56;;;;;;;7.87;4.53;;;;;26.00;99739.00;;;;2044504;28;20669;-69
2022/06/19 00:12:57;;;;;;;5.80;4.47;;;;;26.00;99736.00;;;;2044390;28;20248;-69
2022/06/19 00:13:57;;;;;;;6.23;4.93;;;;;26.00;99733.00;;;;2044534;28;20208;-69
2022/06/19 00:14:57;;;;;;;5.87;4.73;;;;;26.00;99733.00;;;;2044255;28;20205;-70
2022/06/19 00:15:58;;;;;;;5.20;4.70;;;;;26.00;99735.00;;;;2043724;28;20255;-69
2022/06/19 00:16:58;;;;;;;8.47;4.30;;;;;26.00;99729.00;;;;2035092;28;20681;-69
2022/06/19 00:17:58;;;;;;;6.33;4.60;;;;;25.90;99726.00;;;;2027084;29;20705;-69
2022/06/19 00:18:59;;;;;;;6.53;4.30;;;;;26.00;99731.00;;;;2042937;28;20783;-69
2022/06/19 00:19:59;;;;;;;5.70;4.30;;;;;26.00;99729.00;;;;2044244;28;20696;-69
2022/06/19 00:21:00;;;;;;;8.47;4.13;;;;;25.90;99728.00;;;;2044618;28;20209;-69
2022/06/19 00:22:00;;;;;;;6.77;4.40;;;;;25.90;99721.00;;;;2044514;28;20213;-70
2022/06/19 00:23:00;;;;;;;5.50;4.40;;;;;25.90;99728.00;;;;2044265;28;20223;-70
2022/06/19 00:24:01;;;;;;;5.53;4.40;;;;;25.90;99726.00;;;;2043998;28;20303;-70
2022/06/19 00:25:01;;;;;;;5.57;4.07;;;;;25.90;99723.00;;;;2043655;28;20208;-69
2022/06/19 00:26:02;;;;;;;4.40;4.00;;;;;25.90;99712.00;;;;2043775;28;20231;-69
2022/06/19 00:27:03;;;;;;;5.20;4.00;;;;;25.90;99719.00;;;;2043439;28;20213;-69
2022/06/19 00:28:04;;;;;;;6.00;4.40;;;;;25.90;99703.00;;;;2042930;28;20457;-69
2022/06/19 00:29:05;;;;;;;7.13;4.20;;;;;25.90;99709.00;;;;2043873;28;20492;-69
2022/06/19 00:30:07;;;;;;;4.57;4.17;;;;;25.90;99699.00;;;;2043726;28;23218;-69
2022/06/19 00:31:07;;;;;;;4.80;4.40;;;;;25.90;99701.00;;;;2035847;29;20213;-69
2022/06/19 00:32:08;;;;;;;6.30;4.90;;;;;25.90;99704.00;;;;2043069;28;20506;-69
2022/06/19 00:33:08;;;;;;;5.90;4.33;;;;;25.90;99702.00;;;;2043525;28;20775;-69
2022/06/19 00:34:09;;;;;;;4.53;4.10;;;;;25.90;99694.00;;;;2042930;28;20236;-69
2022/06/19 00:35:09;;;;;;;4.20;3.90;;;;;25.90;99696.00;;;;2035024;29;20229;-69
2022/06/19 00:36:10;;;;;;;4.07;3.50;;;;;25.90;99691.00;;;;2035256;29;20296;-70
2022/06/19 00:37:10;;;;;;;5.87;4.30;;;;;25.80;99688.00;;;;2035796;29;20238;-70
2022/06/19 00:38:10;;;;;;;6.27;4.40;;;;;25.90;99681.00;;;;2043973;28;20213;-69
2022/06/19 00:39:11;;;;;;;6.43;3.80;;;;;25.80;99692.00;;;;2044390;28;20272;-70
2022/06/19 00:40:11;;;;;;;4.70;3.97;;;;;25.80;99694.00;;;;2043880;28;20299;-69
2022/06/19 00:41:11;;;;;;;4.40;3.93;;;;;25.80;99692.00;;;;2043436;28;20220;-69
2022/06/19 00:42:13;;;;;;;4.27;3.90;;;;;25.80;99685.00;;;;2042922;28;20208;-69
2022/06/19 00:43:14;;;;;;;5.93;3.47;;;;;25.70;99681.00;;;;2042538;28;20208;-69
2022/06/19 00:44:14;;;;;;;4.13;3.73;;;;;25.70;99678.00;;;;2043583;28;20481;-69
2022/06/19 00:45:30;;;;;;;5.90;4.10;;;;;25.80;99688.00;;;;2044118;28;21017;-69
2022/06/19 00:46:49;;;;;;;3.75;3.35;;;;;25.80;99684.00;;;;2043651;28;20611;-69
2022/06/19 00:47:49;;;;;;;6.50;4.22;;;;;25.70;99669.00;;;;2043009;28;20231;-69
2022/06/19 00:48:49;;;;;;;4.33;3.80;;;;;25.80;99663.00;;;;2043453;28;20240;-69
2022/06/19 00:50:01;;;;;;;6.73;3.70;;;;;25.70;99669.00;;;;2035589;29;20205;-69
2022/06/19 00:51:04;;;;;;;4.20;3.80;;;;;25.70;99672.00;;;;2043189;28;20212;-69
2022/06/19 00:52:29;;;;;;;4.23;3.37;;;;;25.70;99667.00;;;;2042771;28;20456;-69
2022/06/19 00:53:33;;;;;;;5.10;3.45;;;;;25.70;99654.00;;;;2040309;28;20471;-69
2022/06/19 00:54:42;;;;;;;4.85;3.50;;;;;25.70;99658.00;;;;2030365;29;20591;-69
2022/06/19 00:55:44;;;;;;;4.03;3.60;;;;;25.70;99638.00;;;;2030261;29;20232;-69
2022/06/19 00:56:44;;;;;;;5.20;3.33;;;;;25.70;99649.00;;;;2037891;29;20538;-69
2022/06/19 00:57:57;;;;;;;9.63;3.30;;;;;25.70;99653.00;;;;2042843;28;20302;-69
2022/06/19 00:58:57;;;;;;;4.43;3.17;;;;;25.60;99651.00;;;;2042063;28;20228;-69
2022/06/19 01:00:11;;;;;;;4.30;3.47;;;;;25.60;99644.00;;;;2042108;28;20460;-69
2022/06/19 01:01:17;;;;;;;4.82;3.63;;;;;25.60;99645.00;;;;2043431;28;20227;-69
2022/06/19 01:02:17;;;;;;;5.23;3.20;;;;;25.60;99643.00;;;;2043158;28;20705;-69
2022/06/19 01:03:21;;;;;;;6.00;3.70;;;;;25.70;99652.00;;;;2035835;28;20521;-69
2022/06/19 01:04:25;;;;;;;4.53;3.30;;;;;25.70;99641.00;;;;2035352;28;20237;-69
2022/06/19 01:05:25;;;;;;;3.30;3.00;;;;;25.70;99627.00;;;;2027898;29;20301;-69
2022/06/19 01:06:25;;;;;;;5.90;4.07;;;;;25.60;99624.00;;;;2034663;29;20469;-69
2022/06/19 01:07:26;;;;;;;4.70;3.97;;;;;25.60;99632.00;;;;2034444;29;20612;-70
2022/06/19 01:08:26;;;;;;;3.93;3.33;;;;;25.60;99635.00;;;;2034651;29;20213;-69
2022/06/19 01:09:27;;;;;;;4.37;3.67;;;;;25.60;99634.00;;;;2042628;28;20765;-69
2022/06/19 01:10:27;;;;;;;4.87;3.63;;;;;25.70;99633.00;;;;2043244;28;20216;-70
2022/06/19 01:11:29;;;;;;;5.90;3.47;;;;;25.60;99625.00;;;;2034658;28;20304;-70
2022/06/19 01:12:31;;;;;;;4.30;3.00;;;;;25.60;99619.00;;;;2035055;28;20217;-69
2022/06/19 01:13:31;;;;;;;4.30;3.78;;;;;25.60;99606.00;;;;2035030;28;20457;-69
2022/06/19 01:14:32;;;;;;;3.70;3.40;;;;;25.60;99627.00;;;;2036116;28;20220;-69
2022/06/19 01:15:32;;;;;;;4.13;3.23;;;;;25.60;99622.00;;;;2042389;28;20232;-69
2022/06/19 01:16:33;;;;;;;4.90;3.23;;;;;25.60;99616.00;;;;2042518;28;20215;-69
2022/06/19 01:17:33;;;;;;;4.20;3.63;;;;;25.60;99619.00;;;;2034622;28;20261;-69
2022/06/19 01:18:34;;;;;;;5.80;3.40;;;;;25.60;99607.00;;;;2043259;28;20762;-69
2022/06/19 01:19:36;;;;;;;4.93;3.87;;;;;25.60;99610.00;;;;2043417;28;20245;-69
2022/06/19 01:20:36;;;;;;;4.00;3.60;;;;;25.60;99617.00;;;;2043268;28;20243;-69
2022/06/19 01:21:40;;;;;;;4.43;3.80;;;;;25.50;99610.00;;;;2027047;29;20997;-69
2022/06/19 01:23:08;;;;;;;5.70;3.33;;;;;25.50;99611.00;;;;2034758;28;20221;-69
2022/06/19 01:24:36;;;;;;;4.37;3.30;;;;;25.50;99612.00;;;;2044190;28;20470;-69
2022/06/19 01:25:38;;;;;;;3.72;3.42;;;;;25.50;99611.00;;;;2036490;28;20461;-69
2022/06/19 01:26:40;;;;;;;4.07;3.67;;;;;25.50;99594.00;;;;2039852;28;20301;-69
2022/06/19 01:29:02;;;;;;;6.10;4.05;;;;;25.50;99614.00;;;;2041893;28;20456;-69
2022/06/19 01:30:04;;;;;;;3.30;2.97;;;;;25.40;99603.00;;;;2034306;28;20205;-69
2022/06/19 01:31:05;;;;;;;6.20;3.45;;;;;25.40;99602.00;;;;2034720;28;20474;-69
2022/06/19 01:32:07;;;;;;;5.43;3.90;;;;;25.40;99605.00;;;;2035421;29;21011;-69
2022/06/19 01:33:08;;;;;;;5.43;3.47;;;;;25.40;99606.00;;;;2027651;29;20217;-69
2022/06/19 01:34:27;;;;;;;8.02;3.70;;;;;25.40;99598.00;;;;2027980;29;21288;-69
2022/06/19 01:35:30;;;;;;;5.00;3.40;;;;;25.40;99598.00;;;;2045357;28;20310;-69
2022/06/19 01:36:31;;;;;;;5.30;3.63;;;;;25.40;99601.00;;;;2034622;28;20216;-69
2022/06/19 01:37:31;;;;;;;5.00;3.67;;;;;25.40;99602.00;;;;2034480;28;20870;-69
2022/06/19 01:38:32;;;;;;;3.97;3.53;;;;;25.40;99613.00;;;;2042454;28;20500;-69
2022/06/19 01:39:37;;;;;;;5.70;3.67;;;;;25.40;99581.00;;;;2034653;28;20217;-69
2022/06/19 01:40:38;;;;;;;5.20;3.85;;;;;25.40;99599.00;;;;2028405;29;21133;-70
2022/06/19 01:41:39;;;;;;;5.57;3.60;;;;;25.30;99593.00;;;;2023520;29;20221;-69
2022/06/19 01:42:39;;;;;;;5.00;3.53;;;;;25.30;99601.00;;;;2038780;29;20209;-69
2022/06/19 01:43:39;;;;;;;4.77;3.53;;;;;25.30;99605.00;;;;2042948;28;20236;-69
2022/06/19 01:44:41;;;;;;;4.90;3.90;;;;;25.30;99590.00;;;;2042383;28;20208;-69
2022/06/19 01:45:43;;;;;;;5.23;4.00;;;;;25.30;99580.00;;;;2042394;29;20223;-69
2022/06/19 01:46:44;;;;;;;4.60;3.77;;;;;25.30;99588.00;;;;2034482;29;20460;-69
2022/06/19 01:47:44;;;;;;;4.97;3.40;;;;;25.30;99582.00;;;;2032741;29;20450;-69
2022/06/19 01:48:44;;;;;;;6.80;3.80;;;;;25.20;99584.00;;;;2043144;28;20244;-69
2022/06/19 01:49:47;;;;;;;5.93;3.50;;;;;25.20;99584.00;;;;2035263;28;20292;-69
2022/06/19 01:50:47;;;;;;;3.88;3.22;;;;;25.30;99585.00;;;;2035601;29;20384;-69
2022/06/19 01:51:48;;;;;;;4.60;3.43;;;;;25.20;99571.00;;;;2034956;28;20224;-69
2022/06/19 01:52:48;;;;;;;4.53;3.50;;;;;25.20;99577.00;;;;2038782;29;20264;-69
2022/06/19 01:53:55;;;;;;;3.97;3.53;;;;;25.20;99592.00;;;;2038843;29;20685;-69
2022/06/19 01:55:06;;;;;;;3.63;3.33;;;;;25.20;99584.00;;;;2035800;28;20692;-69
2022/06/19 01:56:08;;;;;;;4.50;3.30;;;;;25.30;99584.00;;;;2042261;28;20467;-68
2022/06/19 01:57:09;;;;;;;6.53;3.25;;;;;25.30;99585.00;;;;2035056;28;20260;-69
2022/06/19 01:58:09;;;;;;;4.70;4.00;;;;;25.30;99576.00;;;;2042955;28;20265;-69
2022/06/19 01:59:10;;;;;;;4.13;3.73;;;;;25.20;99577.00;;;;2035270;29;20461;-69
2022/06/19 02:00:14;;;;;;;4.30;3.73;;;;;25.20;99590.00;;;;2038639;29;20221;-69
2022/06/19 02:01:14;;;;;;;3.47;3.03;;;;;25.20;99578.00;;;;2038905;29;20303;-69
2022/06/19 02:02:15;;;;;;;4.33;3.60;;;;;25.20;99581.00;;;;2043076;28;20212;-69
2022/06/19 02:03:18;;;;;;;4.03;3.40;;;;;25.20;99580.00;;;;2042863;28;20216;-69
2022/06/19 02:04:18;;;;;;;4.55;3.63;;;;;25.20;99577.00;;;;2042815;28;20634;-69
2022/06/19 02:05:19;;;;;;;4.00;3.60;;;;;25.20;99574.00;;;;2042900;28;20229;-69
2022/06/19 02:06:20;;;;;;;4.20;3.80;;;;;25.20;99577.00;;;;2035341;28;20261;-69
2022/06/19 02:07:21;;;;;;;6.53;4.00;;;;;25.20;99585.00;;;;2038442;29;20220;-69
2022/06/19 02:08:22;;;;;;;6.63;3.97;;;;;25.20;99585.00;;;;2031009;29;21154;-69
2022/06/19 02:09:22;;;;;;;7.73;3.83;;;;;25.20;99581.00;;;;2034493;29;20468;-69
2022/06/19 02:10:23;;;;;;;3.87;3.50;;;;;25.20;99589.00;;;;2042206;29;20216;-69
2022/06/19 02:11:23;;;;;;;3.20;2.97;;;;;25.20;99585.00;;;;2042309;28;20695;-69
2022/06/19 02:12:23;;;;;;;7.60;3.50;;;;;25.20;99582.00;;;;2041402;29;20217;-69
2022/06/19 02:13:25;;;;;;;4.33;3.17;;;;;25.20;99580.00;;;;2042585;28;20273;-69
2022/06/19 02:14:25;;;;;;;3.75;3.20;;;;;25.00;99586.00;;;;2043042;28;20312;-69
2022/06/19 02:15:26;;;;;;;4.07;2.60;;;;;25.20;99582.00;;;;2042386;28;20601;-69
2022/06/19 02:16:26;;;;;;;4.40;2.97;;;;;25.10;99591.00;;;;2035350;29;20636;-69
2022/06/19 02:17:32;;;;;;;4.00;3.13;;;;;25.10;99584.00;;;;2042330;28;20730;-69
2022/06/19 02:18:37;;;;;;;4.07;3.10;;;;;25.10;99584.00;;;;2038270;29;20240;-69
2022/06/19 02:19:38;;;;;;;3.25;2.95;;;;;25.20;99577.00;;;;2039010;28;20453;-69
2022/06/19 02:20:38;;;;;;;3.53;3.00;;;;;25.20;99580.00;;;;2034842;28;20253;-69
2022/06/19 02:21:41;;;;;;;3.53;3.17;;;;;25.10;99584.00;;;;2035151;28;20273;-69
2022/06/19 02:22:41;;;;;;;3.50;3.20;;;;;25.10;99584.00;;;;2034968;29;20221;-69
2022/06/19 02:23:41;;;;;;;3.57;2.93;;;;;25.10;99583.00;;;;2035213;29;20654;-70
2022/06/19 02:24:42;;;;;;;3.10;2.70;;;;;25.10;99576.00;;;;2042853;28;20584;-69
2022/06/19 02:25:44;;;;;;;3.37;2.80;;;;;25.10;99577.00;;;;2042138;29;20585;-69
2022/06/19 02:26:44;;;;;;;3.20;2.60;;;;;25.10;99580.00;;;;2026543;29;20213;-69
2022/06/19 02:27:45;;;;;;;3.20;2.83;;;;;25.10;99578.00;;;;2034100;29;20265;-69
2022/06/19 02:28:46;;;;;;;2.90;2.70;;;;;25.00;99580.00;;;;2034991;29;20227;-69
2022/06/19 02:29:46;;;;;;;2.55;2.35;;;;;25.00;99584.00;;;;2042213;28;20249;-69
2022/06/19 02:30:47;;;;;;;2.60;2.40;;;;;25.00;99586.00;;;;2043012;28;20305;-69
2022/06/19 02:31:51;;;;;;;4.40;2.30;;;;;25.10;99579.00;;;;2034297;28;20228;-69
2022/06/19 02:32:52;;;;;;;3.25;2.72;;;;;25.10;99577.00;;;;2034024;29;20259;-69
2022/06/19 02:33:55;;;;;;;2.63;2.43;;;;;25.10;99577.00;;;;2033873;29;20225;-69
2022/06/19 02:34:55;;;;;;;4.05;2.60;;;;;25.10;99587.00;;;;2033943;28;20234;-69
2022/06/19 02:35:55;;;;;;;3.13;2.83;;;;;25.10;99580.00;;;;2042689;28;20260;-69
2022/06/19 02:37:00;;;;;;;3.17;2.50;;;;;25.00;99577.00;;;;2043483;28;20213;-69
2022/06/19 02:38:05;;;;;;;3.93;3.23;;;;;25.00;99571.00;;;;2043250;28;20212;-69
2022/06/19 02:39:42;;;;;;;3.03;2.50;;;;;25.00;99569.00;;;;2042244;28;20452;-69
2022/06/19 02:40:50;;;;;;;3.78;2.20;;;;;25.00;99576.00;;;;2031934;29;20760;-69
2022/06/19 02:42:03;;;;;;;4.63;2.40;;;;;25.00;99571.00;;;;2038557;29;20248;-69
2022/06/19 02:43:06;;;;;;;4.53;2.10;;;;;25.00;99572.00;;;;2035815;28;20626;-69
2022/06/19 02:44:06;;;;;;;6.20;2.57;;;;;25.00;99578.00;;;;2034966;28;20225;-69
2022/06/19 02:45:15;;;;;;;3.17;2.27;;;;;25.00;99579.00;;;;2035858;28;20456;-69
2022/06/19 02:46:15;;;;;;;3.67;2.47;;;;;24.90;99587.00;;;;2044671;28;20505;-69
2022/06/19 02:47:15;;;;;;;3.77;2.10;;;;;24.90;99578.00;;;;2044909;28;20695;-69
2022/06/19 02:48:24;;;;;;;5.27;2.50;;;;;24.90;99579.00;;;;2044385;28;20719;-69
2022/06/19 02:49:24;;;;;;;5.60;2.45;;;;;24.90;99589.00;;;;2044282;28;20208;-69
2022/06/19 02:50:29;;;;;;;2.60;2.40;;;;;24.90;99597.00;;;;2044288;28;20212;-69
2022/06/19 02:51:29;;;;;;;5.05;2.42;;;;;24.90;99601.00;;;;2044398;28;20227;-69
2022/06/19 02:52:29;;;;;;;4.90;2.30;;;;;25.00;99612.00;;;;2044319;28;20219;-69
2022/06/19 02:53:30;;;;;;;3.80;2.10;;;;;25.00;99604.00;;;;2044484;28;20217;-69
2022/06/19 02:54:30;;;;;;;4.10;2.43;;;;;25.00;99600.00;;;;2045013;28;20209;-69
2022/06/19 02:55:31;;;;;;;2.27;2.07;;;;;24.90;99608.00;;;;2047589;28;20703;-69
2022/06/19 02:56:31;;;;;;;3.03;2.00;;;;;24.90;99609.00;;;;2047913;28;20703;-69
2022/06/19 02:57:31;;;;;;;2.70;2.00;;;;;24.90;99614.00;;;;2044405;28;20766;-69
2022/06/19 02:58:32;;;;;;;3.07;2.20;;;;;24.90;99619.00;;;;2045012;28;20866;-69
2022/06/19 02:59:32;;;;;;;4.70;2.70;;;;;24.90;99609.00;;;;2045080;28;20212;-69
2022/06/19 03:00:32;;;;;;;2.80;2.23;;;;;24.90;99611.00;;;;2043675;28;20228;-69
2022/06/19 03:01:33;;;;;;;2.77;2.50;;;;;24.90;99609.00;;;;2043931;28;20218;-69
2022/06/19 03:02:33;;;;;;;4.33;2.40;;;;;24.90;99598.00;;;;2043481;28;20271;-69
2022/06/19 03:03:35;;;;;;;2.47;1.90;;;;;24.90;99599.00;;;;2044130;28;21007;-69
2022/06/19 03:04:38;;;;;;;3.28;2.33;;;;;24.90;99594.00;;;;2043532;28;20217;-69
2022/06/19 03:05:38;;;;;;;3.72;2.47;;;;;24.80;99579.00;;;;2036500;29;20244;-69
2022/06/19 03:06:38;;;;;;;2.77;2.20;;;;;24.80;99583.00;;;;2044374;28;20213;-69
2022/06/19 03:07:39;;;;;;;2.73;2.23;;;;;24.80;99577.00;;;;2043065;28;20217;-69
2022/06/19 03:08:39;;;;;;;2.53;2.10;;;;;24.70;99574.00;;;;2044618;28;20589;-69
2022/06/19 03:09:39;;;;;;;3.80;2.00;;;;;24.70;99585.00;;;;2044772;28;20215;-69
2022/06/19 03:10:40;;;;;;;2.23;2.03;;;;;24.80;99601.00;;;;2044211;28;20244;-69
2022/06/19 03:11:40;;;;;;;2.80;2.40;;;;;24.90;99613.00;;;;2044063;28;20216;-69
2022/06/19 03:12:40;;;;;;;4.17;2.07;;;;;24.90;99615.00;;;;2044052;28;20208;-69
2022/06/19 03:13:41;;;;;;;2.70;1.97;;;;;24.90;99622.00;;;;2044110;28;20205;-69
2022/06/19 03:14:42;;;;;;;2.90;1.97;;;;;24.90;99628.00;;;;2043368;28;20247;-69
2022/06/19 03:15:42;;;;;;;2.60;2.13;;;;;24.90;99625.00;;;;2043456;28;20208;-69
2022/06/19 03:16:42;;;;;;;5.13;2.23;;;;;24.80;99623.00;;;;2044080;28;20473;-69
2022/06/19 03:17:43;;;;;;;2.70;2.30;;;;;24.80;99606.00;;;;2043742;28;20581;-69
2022/06/19 03:18:43;;;;;;;2.77;2.40;;;;;24.80;99599.00;;;;2044755;28;20211;-69
2022/06/19 03:19:43;;;;;;;2.60;2.40;;;;;24.80;99587.00;;;;2044931;28;20603;-69
2022/06/19 03:20:44;;;;;;;2.00;1.80;;;;;24.80;99592.00;;;;2044722;28;20221;-69
2022/06/19 03:21:44;;;;;;;2.97;1.97;;;;;24.80;99604.00;;;;2044941;28;20262;-69
2022/06/19 03:22:44;;;;;;;2.70;2.33;;;;;24.80;99619.00;;;;2044051;28;20213;-69
2022/06/19 03:23:45;;;;;;;3.77;2.23;;;;;24.80;99630.00;;;;2044038;28;20220;-69
2022/06/19 03:24:45;;;;;;;3.53;2.07;;;;;24.70;99640.00;;;;2044207;28;20212;-69
2022/06/19 03:25:45;;;;;;;2.10;1.90;;;;;24.80;99635.00;;;;2042063;28;20220;-69
2022/06/19 03:26:46;;;;;;;3.17;2.17;;;;;24.90;99626.00;;;;2043523;28;20216;-69
2022/06/19 03:27:46;;;;;;;2.20;2.00;;;;;24.80;99609.00;;;;2044445;28;20238;-69
2022/06/19 03:28:46;;;;;;;6.00;1.90;;;;;24.70;99626.00;;;;2045074;28;20208;-69
2022/06/19 03:29:47;;;;;;;2.73;1.83;;;;;24.70;99644.00;;;;2044929;28;20212;-69
2022/06/19 03:30:56;;;;;;;2.93;2.00;;;;;24.80;99650.00;;;;2044817;28;20231;-69
2022/06/19 03:31:56;;;;;;;2.70;1.90;;;;;24.80;99657.00;;;;2041952;28;20691;-69
2022/06/19 03:32:57;;;;;;;3.43;2.20;;;;;24.80;99648.00;;;;2043855;28;20228;-69
2022/06/19 03:33:57;;;;;;;3.43;1.53;;;;;24.80;99657.00;;;;2043928;28;20317;-69
2022/06/19 03:34:57;;;;;;;2.93;2.23;;;;;24.70;99664.00;;;;2044819;28;20578;-69
2022/06/19 03:35:58;;;;;;;3.03;2.27;;;;;24.70;99663.00;;;;2044780;28;20205;-69
2022/06/19 03:36:58;;;;;;;2.83;1.60;;;;;24.80;99655.00;;;;2044699;28;20220;-69
2022/06/19 03:37:58;;;;;;;2.13;1.50;;;;;24.80;99675.00;;;;2044487;28;20240;-69
2022/06/19 03:38:59;;;;;;;3.53;1.97;;;;;24.70;99684.00;;;;2044144;28;20223;-69
2022/06/19 03:39:59;;;;;;;2.60;2.00;;;;;24.70;99682.00;;;;2043965;28;20208;-69
2022/06/19 03:40:59;;;;;;;2.10;1.90;;;;;24.70;99681.00;;;;2043914;28;20631;-69
2022/06/19 03:42:00;;;;;;;5.00;2.00;;;;;24.60;99686.00;;;;2043820;28;20213;-69
2022/06/19 03:43:00;;;;;;;3.00;1.90;;;;;24.70;99693.00;;;;2044272;28;20216;-70
2022/06/19 03:44:01;;;;;;;4.73;1.90;;;;;24.70;99694.00;;;;2044835;28;20441;-69
2022/06/19 03:45:01;;;;;;;2.17;1.90;;;;;24.70;99690.00;;;;2044769;28;20281;-69
2022/06/19 03:46:12;;;;;;;4.10;1.60;;;;;24.60;99682.00;;;;2044760;28;20291;-69
2022/06/19 03:47:18;;;;;;;2.85;1.63;;;;;24.60;99684.00;;;;2043167;28;20699;-69
2022/06/19 03:48:18;;;;;;;2.88;2.00;;;;;24.60;99686.00;;;;2042742;28;20216;-69
2022/06/19 03:49:19;;;;;;;3.93;1.80;;;;;24.60;99695.00;;;;2039881;29;20244;-69
2022/06/19 03:50:19;;;;;;;3.30;1.80;;;;;24.70;99692.00;;;;2047553;28;20255;-70
2022/06/19 03:51:23;;;;;;;3.07;1.77;;;;;24.80;99700.00;;;;2044701;28;20209;-69
2022/06/19 03:52:23;;;;;;;3.83;2.20;;;;;24.60;99696.00;;;;2044003;28;20208;-69
2022/06/19 03:53:23;;;;;;;2.27;1.63;;;;;24.70;99693.00;;;;2043378;28;20213;-69
2022/06/19 03:54:24;;;;;;;2.10;1.50;;;;;24.60;99708.00;;;;2043051;28;20224;-70
2022/06/19 03:55:24;;;;;;;6.13;2.17;;;;;24.60;99699.00;;;;2043651;28;20239;-69
2022/06/19 03:56:29;;;;;;;3.53;1.77;;;;;24.60;99717.00;;;;2043386;28;20205;-69
2022/06/19 03:57:29;;;;;;;2.45;1.30;;;;;24.60;99717.00;;;;2042814;28;20231;-69
2022/06/19 03:58:48;;;;;;;6.17;1.90;;;;;24.60;99717.00;;;;2043435;28;20219;-69
2022/06/19 03:59:48;;;;;;;4.25;1.80;;;;;24.50;99711.00;;;;2043641;28;20228;-69
2022/06/19 04:00:48;;;;;;;2.10;1.53;;;;;24.50;99696.00;;;;2043722;28;20232;-69
2022/06/19 04:01:49;;;;;;;4.10;1.90;;;;;24.50;99699.00;;;;2043596;28;20219;-69
2022/06/19 04:02:49;;;;;;;4.80;1.87;;;;;24.50;99711.00;;;;2044119;28;20213;-69
2022/06/19 04:03:51;;;;;;;3.40;1.70;;;;;24.50;99720.00;;;;2044547;28;20883;-69
2022/06/19 04:04:51;;;;;;;7.05;1.67;;;;;24.40;99731.00;;;;2044392;28;20216;-69
2022/06/19 04:05:51;;;;;;;4.33;2.00;;;;;24.40;99726.00;;;;2043009;28;20715;-69
2022/06/19 04:06:52;;;;;;;5.10;1.80;;;;;24.50;99733.00;;;;2044201;28;20704;-69
2022/06/19 04:07:52;;;;;;;5.00;2.10;;;;;24.50;99738.00;;;;2043591;28;20219;-69
2022/06/19 04:08:52;;;;;;;4.70;1.63;;;;;24.50;99740.00;;;;2043742;28;20228;-69
2022/06/19 04:09:58;;;;;;;3.83;1.57;;;;;24.50;99766.00;;;;2043721;28;20270;-69
2022/06/19 04:10:59;;;;;;;5.57;2.00;;;;;24.50;99760.00;;;;2043843;28;20893;-69
2022/06/19 04:11:59;;;;;;;4.20;1.50;;;;;24.50;99754.00;;;;2047390;28;20239;-69
2022/06/19 04:12:59;;;;;;;4.70;1.80;;;;;24.40;99763.00;;;;2043739;28;20217;-69
2022/06/19 04:14:00;;;;;;;8.80;2.00;;;;;24.30;99755.00;;;;2043681;28;20224;-69
2022/06/19 04:15:00;;;;;;;4.67;1.80;;;;;24.30;99758.00;;;;2044255;28;20209;-69
2022/06/19 04:16:01;;;;;;;4.23;1.53;;;;;24.30;99772.00;;;;2044484;28;20224;-69
2022/06/19 04:17:03;;;;;;;4.50;1.80;;;;;24.30;99757.00;;;;2044405;28;20304;-69
2022/06/19 04:18:03;;;;;;;6.40;1.70;;;;;24.30;99772.00;;;;2044020;28;20297;-69
2022/06/19 04:19:05;;;;;;;5.90;1.80;;;;;24.40;99768.00;;;;2042041;28;20316;-69
2022/06/19 04:20:07;;;;;;;5.20;2.00;;;;;24.30;99774.00;;;;2043524;28;20278;-70
2022/06/19 04:21:11;;;;;;;3.67;1.65;;;;;24.40;99774.00;;;;2043766;28;20231;-69
2022/06/19 04:22:12;;;;;;;6.07;1.70;;;;;24.40;99783.00;;;;2043712;28;20667;-69
2022/06/19 04:23:12;;;;;;;6.43;1.93;;;;;24.40;99785.00;;;;2043395;28;20228;-69
2022/06/19 04:24:14;;;;;;;4.60;1.70;;;;;24.40;99773.00;;;;2044294;28;20256;-69
2022/06/19 04:25:14;;;;;;;5.97;2.00;;;;;24.30;99776.00;;;;2044384;28;20224;-70
2022/06/19 04:26:15;;;;;;;5.70;1.80;;;;;24.30;99787.00;;;;2035158;29;20217;-69
2022/06/19 04:27:15;;;;;;;5.50;2.20;;;;;24.30;99801.00;;;;2034864;29;20215;-69
2022/06/19 04:28:17;;;;;;;5.63;1.67;;;;;24.40;99827.00;;;;2043383;28;20220;-69
2022/06/19 04:29:17;;;;;;;4.85;1.63;;;;;24.40;99829.00;;;;2043623;28;20272;-69
2022/06/19 04:30:17;;;;;;;6.10;1.80;;;;;24.30;99828.00;;;;2044447;28;20361;-69
2022/06/19 04:31:18;;;;;;;6.47;2.20;;;;;24.30;99811.00;;;;2044558;28;20593;-69
2022/06/19 04:32:18;;;;;;;4.47;2.13;;;;;24.30;99801.00;;;;2043745;28;20225;-69
2022/06/19 04:33:20;;;;;;;6.33;2.33;;;;;24.20;99802.00;;;;2043664;28;20220;-69
2022/06/19 04:34:20;;;;;;;4.68;2.00;;;;;24.30;99789.00;;;;2043524;28;20275;-69
2022/06/19 04:35:20;;;;;;;6.27;2.07;;;;;24.30;99783.00;;;;2042073;28;20645;-69
2022/06/19 04:36:22;;;;;;;4.20;1.70;;;;;24.30;99781.00;;;;2042547;28;20215;-69
2022/06/19 04:37:22;;;;;;;4.93;1.90;;;;;24.30;99802.00;;;;2042845;28;20299;-69
2022/06/19 04:38:23;;;;;;;6.53;1.90;;;;;24.30;99781.00;;;;2042832;28;20209;-69
2022/06/19 04:39:23;;;;;;;6.37;1.67;;;;;24.30;99792.00;;;;2043338;28;20209;-69
2022/06/19 04:40:28;;;;;;;5.53;2.10;;;;;24.20;99792.00;;;;2043980;28;20225;-69
2022/06/19 04:41:36;;;;;;;5.68;2.08;;;;;24.20;99811.00;;;;2044126;28;20351;-69
2022/06/19 04:42:36;;;;;;;5.53;1.77;;;;;24.20;99797.00;;;;2042764;28;20311;-69
2022/06/19 04:43:37;;;;;;;6.63;2.10;;;;;24.30;99819.00;;;;2042965;28;20581;-69
2022/06/19 04:44:37;;;;;;;4.80;2.03;;;;;24.30;99807.00;;;;2043571;28;20652;-70
2022/06/19 04:45:38;;;;;;;6.77;2.17;;;;;24.30;99810.00;;;;2044250;28;20209;-69
2022/06/19 04:46:39;;;;;;;5.70;2.07;;;;;24.30;99802.00;;;;2044241;28;20209;-69
2022/06/19 04:47:40;;;;;;;6.67;2.07;;;;;24.30;99789.00;;;;2044031;28;20217;-69
2022/06/19 04:48:40;;;;;;;7.73;2.17;;;;;24.20;99785.00;;;;2044240;28;20448;-69
2022/06/19 04:49:40;;;;;;;5.83;2.23;;;;;24.10;99780.00;;;;2043337;28;20224;-69
2022/06/19 04:50:41;;;;;;;6.67;2.27;;;;;24.10;99772.00;;;;2042875;28;20251;-69
2022/06/19 04:51:42;;;;;;;6.03;2.10;;;;;24.10;99771.00;;;;2043222;28;20216;-69
2022/06/19 04:52:43;;;;;;;6.38;1.80;;;;;24.20;99762.00;;;;2042792;28;20221;-69
2022/06/19 04:53:43;;;;;;;6.37;2.37;;;;;24.30;99765.00;;;;2043344;28;20236;-69
2022/06/19 04:54:45;;;;;;;6.53;2.43;;;;;24.20;99764.00;;;;2044202;28;20347;-70
2022/06/19 04:55:46;;;;;;;6.43;2.10;;;;;24.10;99788.00;;;;2044131;28;20212;-70
2022/06/19 04:56:47;;;;;;;5.82;2.53;;;;;24.10;99793.00;;;;2043076;28;20232;-70
2022/06/19 04:57:47;;;;;;;6.37;2.20;;;;;24.10;99801.00;;;;2042233;28;20219;-69
2022/06/19 04:58:48;;;;;;;7.30;2.00;;;;;24.10;99789.00;;;;2043387;28;20676;-70
2022/06/19 04:59:49;;;;;;;6.33;2.30;;;;;24.10;99783.00;;;;2043449;28;20233;-69
2022/06/19 05:00:50;;;;;;;6.10;2.07;;;;;24.00;99785.00;;;;2041667;28;20897;-69
2022/06/19 05:01:50;;;;;;;8.00;2.55;;;;;23.90;99785.00;;;;2043196;28;20216;-69
2022/06/19 05:02:51;;;;;;;6.50;2.13;;;;;23.90;99774.00;;;;2043160;28;20224;-69
2022/06/19 05:03:52;;;;;;;6.67;2.40;;;;;23.90;99787.00;;;;2043281;28;20219;-69
2022/06/19 05:04:53;;;;;;;7.28;2.10;;;;;23.90;99776.00;;;;2043254;28;20227;-69
2022/06/19 05:05:56;;;;;;;5.87;2.37;;;;;23.90;99780.00;;;;2043741;28;20221;-70
2022/06/19 05:06:56;;;;;;;5.93;2.10;;;;;23.90;99791.00;;;;2043693;28;20224;-69
2022/06/19 05:07:56;;;;;;;9.20;2.60;;;;;23.90;99793.00;;;;2043750;28;20223;-69
2022/06/19 05:08:57;;;;;;;5.90;1.73;;;;;23.90;99793.00;;;;2042906;28;20216;-69
2022/06/19 05:09:58;;;;;;;5.45;2.30;;;;;23.80;99786.00;;;;2043336;28;20213;-69
2022/06/19 05:10:58;;;;;;;9.10;2.70;;;;;23.90;99788.00;;;;2043256;28;20290;-69
2022/06/19 05:11:58;;;;;;;6.80;2.23;;;;;23.90;99776.00;;;;2043350;28;20216;-69